createdAt,value
2022-10-06T00:02:50.879Z,1.25
2022-10-06T00:07:52.684Z,1.10
2022-10-06T00:12:54.249Z,0.90
2022-10-06T00:17:56.318Z,0.90
2022-10-06T00:22:58.453Z,0.90
2022-10-06T00:27:59.977Z,1.30
2022-10-06T00:33:02.466Z,0.90
2022-10-06T00:38:04.203Z,1.00
2022-10-06T00:43:06.440Z,1.00
2022-10-06T00:48:11.284Z,1.13
2022-10-06T00:53:13.700Z,1.33
2022-10-06T00:58:15.687Z,1.23
2022-10-06T01:03:43.205Z,1.10
2022-10-06T01:08:45.911Z,1.20
2022-10-06T01:13:47.602Z,1.10
2022-10-06T01:18:49.547Z,1.25
2022-10-06T01:23:51.179Z,1.42
2022-10-06T01:28:52.958Z,1.30
2022-10-06T01:33:54.760Z,1.20
2022-10-06T01:38:56.270Z,1.20
2022-10-06T01:43:57.827Z,1.13
2022-10-06T01:48:59.436Z,1.48
2022-10-06T01:54:00.919Z,1.50
2022-10-06T01:59:02.544Z,1.58
2022-10-06T02:04:04.152Z,1.67
2022-10-06T02:09:05.667Z,1.70
2022-10-06T02:14:07.271Z,1.20
2022-10-06T02:19:08.809Z,1.75
2022-10-06T02:24:10.295Z,1.45
2022-10-06T02:29:11.877Z,1.50
2022-10-06T02:34:13.371Z,1.77
2022-10-06T02:39:14.903Z,1.52
2022-10-06T02:44:16.412Z,1.80
2022-10-06T02:49:17.999Z,1.45
2022-10-06T02:54:19.510Z,1.95
2022-10-06T02:59:21.195Z,1.92
2022-10-06T03:04:22.727Z,1.50
2022-10-06T03:09:24.314Z,1.67
2022-10-06T03:14:25.896Z,1.80
2022-10-06T03:19:27.480Z,1.80
2022-10-06T03:24:28.952Z,2.15
2022-10-06T03:29:31.228Z,1.73
2022-10-06T03:34:32.819Z,1.67
2022-10-06T03:39:34.407Z,1.92
2022-10-06T03:44:35.976Z,1.80
2022-10-06T03:49:39.058Z,1.95
2022-10-06T03:54:40.702Z,1.90
2022-10-06T03:59:42.168Z,2.22
2022-10-06T04:04:43.682Z,2.60
2022-10-06T04:09:45.159Z,2.50
2022-10-06T04:14:46.914Z,2.05
2022-10-06T04:19:48.423Z,1.95
2022-10-06T04:24:50.697Z,0.80
2022-10-06T04:29:52.205Z,0.82
2022-10-06T04:34:53.719Z,0.77
2022-10-06T04:39:55.503Z,0.30
2022-10-06T04:44:57.017Z,0.60
2022-10-06T04:49:58.569Z,0.43
2022-10-06T04:55:00.039Z,0.50
2022-10-06T05:00:20.145Z,0.43
2022-10-06T05:05:21.762Z,0.47
2022-10-06T05:10:23.274Z,0.43
2022-10-06T05:15:24.884Z,0.43
2022-10-06T05:20:26.472Z,0.43
2022-10-06T05:25:28.081Z,0.50
2022-10-06T05:30:29.551Z,0.50
2022-10-06T05:35:31.047Z,0.25
2022-10-06T05:40:32.545Z,0.40
2022-10-06T05:45:34.067Z,0.20
2022-10-06T05:50:35.657Z,0.30
2022-10-06T05:55:37.124Z,0.43
2022-10-06T06:00:38.691Z,0.10
2022-10-06T06:05:41.352Z,0.50
2022-10-06T06:10:43.335Z,0.40
2022-10-06T06:16:04.210Z,0.20
2022-10-06T06:21:07.109Z,0.30
2022-10-06T06:26:09.994Z,0.30
2022-10-06T06:31:19.921Z,0.30
2022-10-06T06:36:23.135Z,0.35
2022-10-06T06:41:26.138Z,0.20
2022-10-06T06:46:32.091Z,0.40
2022-10-06T06:51:34.743Z,0.30
2022-10-06T06:56:36.962Z,0.88
2022-10-06T07:01:39.619Z,0.40
2022-10-06T07:06:41.681Z,0.43
2022-10-06T07:11:43.263Z,0.68
2022-10-06T07:17:03.351Z,0.60
2022-10-06T07:22:26.667Z,0.70
2022-10-06T07:27:28.679Z,0.45
2022-10-06T07:32:31.359Z,0.43
2022-10-06T07:37:34.948Z,0.60
2022-10-06T07:42:48.416Z,0.35
2022-10-06T07:47:57.280Z,1.02
2022-10-06T07:53:01.264Z,0.43
2022-10-06T07:58:02.815Z,0.77
2022-10-06T08:03:04.382Z,0.50
2022-10-06T08:08:06.442Z,0.50
2022-10-06T08:13:08.699Z,0.43
2022-10-06T08:18:27.224Z,0.47
2022-10-06T08:23:31.995Z,0.60
2022-10-06T08:28:35.419Z,0.50
2022-10-06T08:33:40.022Z,0.68
2022-10-06T08:38:41.591Z,0.57
2022-10-06T08:43:43.756Z,0.65
2022-10-06T08:48:45.387Z,0.80
2022-10-06T08:53:52.727Z,0.50
2022-10-06T08:58:54.566Z,0.40
2022-10-06T09:04:01.969Z,0.45
2022-10-06T09:09:13.772Z,0.63
2022-10-06T09:14:21.683Z,0.50
2022-10-06T09:19:24.710Z,0.88
2022-10-06T09:24:46.931Z,0.40
2022-10-06T09:29:50.095Z,0.57
2022-10-06T09:34:52.902Z,1.17
2022-10-06T09:39:55.096Z,0.63
2022-10-06T09:45:08.037Z,0.80
2022-10-06T09:50:12.309Z,0.60
2022-10-06T09:55:14.914Z,1.33
2022-10-06T10:00:29.840Z,0.57
2022-10-06T10:05:36.307Z,0.60
2022-10-06T10:10:38.306Z,0.40
2022-10-06T10:15:52.472Z,0.50
2022-10-06T10:20:57.602Z,0.30
2022-10-06T10:26:08.150Z,0.43
2022-10-06T10:31:20.460Z,0.40
2022-10-06T10:36:24.162Z,0.50
2022-10-06T10:41:28.442Z,0.30
2022-10-06T10:46:33.284Z,0.38
2022-10-06T10:51:38.204Z,0.20
2022-10-06T10:56:39.707Z,0.45
2022-10-06T11:01:46.989Z,0.20
2022-10-06T11:07:11.202Z,0.73
2022-10-06T11:12:15.579Z,0.45
2022-10-06T11:17:23.104Z,0.30
2022-10-06T11:22:53.870Z,0.30
2022-10-06T11:28:01.223Z,0.40
2022-10-06T11:33:17.542Z,0.50
2022-10-06T11:38:19.036Z,1.30
2022-10-06T11:43:29.393Z,0.68
2022-10-06T11:48:31.572Z,0.25
2022-10-06T11:53:37.003Z,0.45
2022-10-06T11:58:50.665Z,0.22
2022-10-06T12:04:04.014Z,0.57
2022-10-06T12:09:24.873Z,0.30
2022-10-06T12:20:11.267Z,0.35
2022-10-06T12:25:19.974Z,0.73
2022-10-06T12:30:33.159Z,0.50
2022-10-06T12:35:40.075Z,0.73
2022-10-06T12:40:51.935Z,0.77
2022-10-06T12:45:56.515Z,0.63
2022-10-06T12:51:03.211Z,0.30
2022-10-06T12:56:06.062Z,0.55
2022-10-06T13:01:10.243Z,1.05
2022-10-06T13:06:12.003Z,0.90
2022-10-06T13:11:23.933Z,0.60
2022-10-06T13:16:27.574Z,1.20
2022-10-06T13:21:29.699Z,0.57
2022-10-06T13:26:32.877Z,0.88
2022-10-06T13:31:35.297Z,1.17
2022-10-06T13:36:38.838Z,0.88
2022-10-06T13:41:45.387Z,1.05
2022-10-06T13:46:52.019Z,0.70
2022-10-06T13:51:54.680Z,0.70
2022-10-06T13:56:56.427Z,1.08
2022-10-06T14:01:59.748Z,0.90
2022-10-06T14:07:01.528Z,0.82
2022-10-06T14:12:03.247Z,1.00
2022-10-06T14:17:04.939Z,0.50
2022-10-06T14:22:26.383Z,0.55
2022-10-06T14:27:28.140Z,0.50
2022-10-06T14:32:29.683Z,0.70
2022-10-06T14:37:31.217Z,1.10
2022-10-06T14:42:32.932Z,0.40
2022-10-06T14:47:34.590Z,0.70
2022-10-06T14:52:39.344Z,0.50
2022-10-06T14:57:41.015Z,1.10
2022-10-06T15:02:42.610Z,0.70
2022-10-06T15:08:02.619Z,0.50
2022-10-06T15:13:06.416Z,0.57
2022-10-06T15:18:07.943Z,1.05
2022-10-06T15:23:09.736Z,0.45
2022-10-06T15:28:32.922Z,0.40
2022-10-06T15:33:36.433Z,0.20
2022-10-06T15:38:37.970Z,0.40
2022-10-06T15:43:55.367Z,0.90
2022-10-06T15:49:17.164Z,1.02
2022-10-06T15:54:21.999Z,0.63
2022-10-06T15:59:24.680Z,1.00
2022-10-06T16:04:39.507Z,1.00
2022-10-06T16:09:43.541Z,1.40
2022-10-06T16:14:45.563Z,1.00
2022-10-06T16:19:47.232Z,0.88
2022-10-06T16:24:49.761Z,1.23
2022-10-06T16:29:51.250Z,1.67
2022-10-06T16:34:52.812Z,2.03
2022-10-06T16:39:54.383Z,1.58
2022-10-06T16:44:55.873Z,0.98
2022-10-06T16:49:57.356Z,1.45
2022-10-06T16:54:58.842Z,2.42
2022-10-06T17:00:00.522Z,0.85
2022-10-06T17:05:02.063Z,1.25
2022-10-06T17:10:20.135Z,0.90
2022-10-06T17:15:22.941Z,1.00
2022-10-06T17:20:24.530Z,1.40
2022-10-06T17:25:26.072Z,1.42
2022-10-06T17:30:27.551Z,1.35
2022-10-06T17:35:29.025Z,1.60
2022-10-06T17:40:30.478Z,1.35
2022-10-06T17:45:31.998Z,0.90
2022-10-06T17:50:33.502Z,1.17
2022-10-06T17:55:37.919Z,1.60
2022-10-06T18:00:39.382Z,1.27
2022-10-06T18:05:40.876Z,0.88
2022-10-06T18:11:05.731Z,1.75
2022-10-06T18:16:13.709Z,1.77
2022-10-06T18:21:15.355Z,1.50
2022-10-06T18:26:17.944Z,1.05
2022-10-06T18:31:19.586Z,1.00
2022-10-06T18:36:21.253Z,0.70
2022-10-06T18:41:23.078Z,1.00
2022-10-06T18:47:04.397Z,0.95
2022-10-06T18:52:06.425Z,1.20
2022-10-06T18:57:07.943Z,1.50
2022-10-06T19:02:10.562Z,1.17
2022-10-06T19:07:12.176Z,1.35
2022-10-06T19:12:14.299Z,1.58
2022-10-06T19:17:16.158Z,0.90
2022-10-06T19:22:18.194Z,1.60
2022-10-06T19:27:26.197Z,1.63
2022-10-06T19:32:28.561Z,1.15
2022-10-06T19:37:30.798Z,1.70
2022-10-06T19:42:47.614Z,1.40
2022-10-06T19:47:49.279Z,1.35
2022-10-06T19:52:51.779Z,2.22
2022-10-06T19:57:53.315Z,1.70
2022-10-06T20:02:54.913Z,1.92
2022-10-06T20:07:56.423Z,1.75
2022-10-06T20:12:58.811Z,1.55
2022-10-06T20:18:00.489Z,2.13
2022-10-06T20:23:02.024Z,2.33
2022-10-06T20:28:06.778Z,2.78
2022-10-06T20:33:11.392Z,2.30
2022-10-06T20:38:14.781Z,1.83
2022-10-06T20:43:16.970Z,1.92
2022-10-06T20:48:18.499Z,1.52
2022-10-06T20:53:19.976Z,1.80
2022-10-06T20:58:21.451Z,2.03
2022-10-06T21:03:23.000Z,2.10
2022-10-06T21:08:24.569Z,1.50
2022-10-06T21:13:26.962Z,2.00
2022-10-06T21:18:28.502Z,2.13
2022-10-06T21:23:30.563Z,2.50
2022-10-06T21:28:32.266Z,1.65
2022-10-06T21:33:34.130Z,2.55
2022-10-06T21:38:41.661Z,2.65
2022-10-06T21:43:43.151Z,2.17
2022-10-06T21:48:48.605Z,2.03
2022-10-06T21:53:50.766Z,2.03
2022-10-06T21:58:53.330Z,1.85
2022-10-06T22:03:55.872Z,2.45
2022-10-06T22:08:57.788Z,2.40
2022-10-06T22:14:00.721Z,2.03
2022-10-06T22:19:03.427Z,2.55
2022-10-06T22:24:06.513Z,2.05
2022-10-06T22:29:08.847Z,2.50
2022-10-06T22:34:11.057Z,1.40
2022-10-06T22:39:12.542Z,3.40
2022-10-06T22:44:14.060Z,2.35
2022-10-06T22:49:15.521Z,1.80
2022-10-06T22:54:18.801Z,2.72
2022-10-06T22:59:20.302Z,2.10
2022-10-06T23:04:21.772Z,2.38
2022-10-06T23:09:23.266Z,2.75
2022-10-06T23:14:24.810Z,2.42
2022-10-06T23:19:26.337Z,3.05
2022-10-06T23:24:27.861Z,4.07
2022-10-06T23:29:29.321Z,1.75
2022-10-06T23:34:30.849Z,2.47
2022-10-06T23:39:32.340Z,2.42
2022-10-06T23:44:33.805Z,2.55
2022-10-06T23:49:35.318Z,2.10
2022-10-06T23:54:36.833Z,1.90
2022-10-06T23:59:38.293Z,2.20
